createdAt,value
2023-01-11T00:00:32.694Z,0.70
2023-01-11T00:01:32.681Z,0.90
2023-01-11T00:02:32.682Z,1.00
2023-01-11T00:03:32.684Z,1.00
2023-01-11T00:04:32.656Z,1.30
2023-01-11T00:05:32.627Z,1.00
2023-01-11T00:06:32.665Z,0.90
2023-01-11T00:07:32.594Z,0.90
2023-01-11T00:08:32.607Z,0.70
2023-01-11T00:09:32.575Z,0.80
2023-01-11T00:10:32.564Z,0.60
2023-01-11T00:11:32.551Z,0.80
2023-01-11T00:12:32.516Z,1.10
2023-01-11T00:13:32.569Z,0.90
2023-01-11T00:14:32.518Z,1.30
2023-01-11T00:15:32.495Z,1.90
2023-01-11T00:16:32.498Z,1.70
2023-01-11T00:17:32.480Z,0.90
2023-01-11T00:18:32.461Z,0.80
2023-01-11T00:19:32.474Z,0.50
2023-01-11T00:20:32.443Z,2.90
2023-01-11T00:21:32.459Z,0.40
2023-01-11T00:22:32.408Z,1.70
2023-01-11T00:23:32.422Z,0.50
2023-01-11T00:24:32.364Z,0.30
2023-01-11T00:25:32.397Z,0.30
2023-01-11T00:26:32.411Z,0.30
2023-01-11T00:27:32.327Z,0.40
2023-01-11T00:28:32.340Z,0.40
2023-01-11T00:29:32.305Z,0.50
2023-01-11T00:30:32.499Z,0.70
2023-01-11T00:31:32.312Z,0.70
2023-01-11T00:32:32.295Z,0.60
2023-01-11T00:33:32.262Z,0.70
2023-01-11T00:34:32.260Z,0.60
2023-01-11T00:35:32.259Z,0.70
2023-01-11T00:36:32.326Z,0.30
2023-01-11T00:37:32.207Z,0.90
2023-01-11T00:38:32.187Z,0.30
2023-01-11T00:39:32.193Z,1.20
2023-01-11T00:40:32.192Z,0.50
2023-01-11T00:41:32.189Z,1.00
2023-01-11T00:42:32.157Z,1.30
2023-01-11T00:43:32.142Z,1.90
2023-01-11T00:44:32.131Z,1.10
2023-01-11T00:45:32.114Z,0.60
2023-01-11T00:46:32.157Z,0.80
2023-01-11T00:47:32.116Z,0.70
2023-01-11T00:48:32.129Z,0.70
2023-01-11T00:49:32.065Z,0.80
2023-01-11T00:50:32.057Z,1.70
2023-01-11T00:51:32.041Z,0.30
2023-01-11T00:52:32.022Z,1.10
2023-01-11T00:53:32.030Z,0.40
2023-01-11T00:54:31.990Z,1.20
2023-01-11T00:55:32.029Z,0.40
2023-01-11T00:56:32.046Z,0.50
2023-01-11T00:57:32.015Z,0.50
2023-01-11T00:58:31.979Z,1.20
2023-01-11T00:59:31.953Z,0.40
2023-01-11T01:00:31.931Z,0.50
2023-01-11T01:01:31.956Z,0.60
2023-01-11T01:02:32.004Z,0.40
2023-01-11T01:03:31.889Z,0.90
2023-01-11T01:04:31.916Z,1.00
2023-01-11T01:06:24.616Z,0.40
2023-01-11T01:07:24.555Z,0.40
2023-01-11T01:08:24.521Z,0.70
2023-01-11T01:09:24.513Z,0.90
2023-01-11T01:10:24.540Z,1.00
2023-01-11T01:11:24.481Z,1.60
2023-01-11T01:12:24.510Z,0.90
2023-01-11T01:13:24.547Z,0.40
2023-01-11T01:14:24.462Z,1.00
2023-01-11T01:15:24.416Z,1.40
2023-01-11T01:16:24.430Z,0.40
2023-01-11T01:17:24.398Z,1.30
2023-01-11T01:18:24.379Z,0.50
2023-01-11T01:19:24.409Z,1.50
2023-01-11T01:20:24.390Z,0.60
2023-01-11T01:21:24.346Z,1.20
2023-01-11T01:22:24.397Z,1.10
2023-01-11T01:23:24.313Z,0.60
2023-01-11T01:24:24.303Z,3.10
2023-01-11T01:25:24.274Z,0.30
2023-01-11T01:26:24.281Z,0.70
2023-01-11T01:27:24.289Z,0.60
2023-01-11T01:28:24.238Z,0.50
2023-01-11T01:29:24.235Z,0.30
2023-01-11T01:30:24.233Z,0.40
2023-01-11T01:31:24.245Z,0.40
2023-01-11T01:32:24.195Z,0.90
2023-01-11T01:33:24.207Z,0.70
2023-01-11T01:34:24.261Z,0.30
2023-01-11T01:35:24.190Z,0.70
2023-01-11T01:36:24.188Z,1.10
2023-01-11T01:37:24.143Z,0.80
2023-01-11T01:38:24.166Z,0.40
2023-01-11T01:39:24.134Z,0.70
2023-01-11T01:40:24.118Z,0.90
2023-01-11T01:41:24.081Z,0.90
2023-01-11T01:42:24.130Z,0.60
2023-01-11T01:43:24.060Z,1.00
2023-01-11T01:44:24.126Z,0.30
2023-01-11T01:45:24.059Z,0.50
2023-01-11T01:46:24.068Z,0.60
2023-01-11T01:47:24.004Z,0.60
2023-01-11T01:48:24.043Z,0.30
2023-01-11T01:49:24.003Z,0.80
2023-01-11T01:50:24.028Z,0.20
2023-01-11T01:51:23.945Z,0.30
2023-01-11T01:52:23.958Z,0.60
2023-01-11T01:53:23.948Z,1.20
2023-01-11T01:54:23.962Z,0.40
2023-01-11T01:55:23.934Z,0.50
2023-01-11T01:56:23.948Z,1.10
2023-01-11T01:57:23.906Z,0.40
2023-01-11T01:58:23.886Z,0.20
2023-01-11T01:59:23.911Z,0.60
2023-01-11T02:00:23.856Z,1.00
2023-01-11T02:01:23.860Z,0.60
2023-01-11T02:02:23.847Z,0.40
2023-01-11T02:03:23.822Z,0.50
2023-01-11T02:04:23.856Z,0.30
2023-01-11T02:05:23.838Z,0.20
2023-01-11T02:06:23.959Z,0.30
2023-01-11T02:07:23.751Z,1.10
2023-01-11T02:08:23.813Z,0.70
2023-01-11T02:09:23.725Z,0.70
2023-01-11T02:10:23.732Z,0.20
2023-01-11T02:11:23.722Z,0.50
2023-01-11T02:12:23.749Z,0.50
2023-01-11T02:13:23.707Z,1.20
2023-01-11T02:14:23.657Z,1.80
2023-01-11T02:15:31.275Z,0.30
2023-01-11T02:16:23.711Z,0.20
2023-01-11T02:17:23.878Z,0.60
2023-01-11T02:18:23.665Z,0.70
2023-01-11T02:19:23.630Z,0.70
2023-01-11T02:20:23.682Z,1.40
2023-01-11T02:21:23.732Z,0.90
2023-01-11T02:22:23.570Z,1.90
2023-01-11T02:23:23.575Z,0.70
2023-01-11T02:24:23.572Z,1.10
2023-01-11T02:25:23.555Z,1.50
2023-01-11T02:26:23.545Z,0.30
2023-01-11T02:27:23.519Z,1.50
2023-01-11T02:28:23.508Z,0.40
2023-01-11T02:29:23.480Z,0.40
2023-01-11T02:30:23.496Z,0.80
2023-01-11T02:31:23.472Z,0.80
2023-01-11T02:32:23.471Z,0.70
2023-01-11T02:33:23.440Z,0.40
2023-01-11T02:34:23.435Z,2.00
2023-01-11T02:35:23.422Z,1.00
2023-01-11T02:36:23.409Z,1.20
2023-01-11T02:37:23.410Z,1.10
2023-01-11T02:38:23.401Z,1.80
2023-01-11T02:39:23.440Z,0.70
2023-01-11T02:40:23.338Z,0.90
2023-01-11T02:41:23.340Z,1.00
2023-01-11T02:42:23.401Z,0.60
2023-01-11T02:43:23.303Z,0.30
2023-01-11T02:44:23.433Z,0.60
2023-01-11T02:45:23.325Z,1.50
2023-01-11T02:46:23.358Z,0.70
2023-01-11T02:47:23.299Z,0.40
2023-01-11T02:48:23.281Z,1.00
2023-01-11T02:49:23.245Z,0.80
2023-01-11T02:50:23.230Z,0.50
2023-01-11T02:51:23.215Z,0.30
2023-01-11T02:52:23.212Z,0.40
2023-01-11T02:53:23.204Z,0.60
2023-01-11T02:54:23.206Z,0.80
2023-01-11T02:55:23.191Z,0.70
2023-01-11T02:56:23.160Z,0.40
2023-01-11T02:57:23.158Z,0.80
2023-01-11T02:58:23.149Z,1.50
2023-01-11T02:59:23.138Z,0.40
2023-01-11T03:00:23.104Z,0.80
2023-01-11T03:01:23.093Z,0.40
2023-01-11T03:02:23.082Z,0.30
2023-01-11T03:03:23.063Z,0.20
2023-01-11T03:04:23.061Z,0.60
2023-01-11T03:05:23.089Z,0.70
2023-01-11T03:06:23.072Z,0.20
2023-01-11T03:07:23.052Z,0.80
2023-01-11T03:08:22.997Z,1.00
2023-01-11T03:09:22.997Z,1.00
2023-01-11T03:10:22.990Z,1.10
2023-01-11T03:11:22.986Z,0.50
2023-01-11T03:12:22.951Z,0.70
2023-01-11T03:13:22.970Z,0.50
2023-01-11T03:14:22.978Z,0.30
2023-01-11T03:15:22.927Z,0.20
2023-01-11T03:16:22.959Z,1.00
2023-01-11T03:17:22.885Z,0.90
2023-01-11T03:18:22.874Z,1.00
2023-01-11T03:19:22.848Z,0.70
2023-01-11T03:20:22.866Z,0.30
2023-01-11T03:21:22.895Z,0.30
2023-01-11T03:22:22.904Z,1.10
2023-01-11T03:23:22.815Z,0.80
2023-01-11T03:24:22.828Z,0.60
2023-01-11T03:25:22.782Z,0.50
2023-01-11T03:26:22.759Z,0.40
2023-01-11T03:27:22.831Z,1.20
2023-01-11T03:28:29.062Z,1.90
2023-01-11T03:29:22.725Z,0.70
2023-01-11T03:30:22.826Z,1.10
2023-01-11T03:31:22.791Z,1.30
2023-01-11T03:32:22.685Z,0.70
2023-01-11T03:33:22.680Z,0.30
2023-01-11T03:34:22.700Z,1.60
2023-01-11T03:35:22.702Z,0.60
2023-01-11T03:36:22.665Z,0.70
2023-01-11T03:37:22.707Z,1.20
2023-01-11T03:38:22.641Z,1.30
2023-01-11T03:39:22.626Z,1.10
2023-01-11T03:40:22.658Z,0.80
2023-01-11T03:41:22.638Z,0.90
2023-01-11T03:42:22.580Z,0.40
2023-01-11T03:43:22.556Z,0.70
2023-01-11T03:44:22.598Z,0.40
2023-01-11T03:45:22.522Z,0.60
2023-01-11T03:46:22.706Z,0.70
2023-01-11T03:47:22.519Z,0.70
2023-01-11T03:48:22.484Z,1.00
2023-01-11T03:49:22.500Z,1.00
2023-01-11T03:50:22.459Z,0.90
2023-01-11T03:51:22.484Z,1.20
2023-01-11T03:52:22.451Z,0.60
2023-01-11T03:53:22.425Z,0.50
2023-01-11T03:54:22.392Z,1.10
2023-01-11T03:55:22.406Z,0.60
2023-01-11T03:56:22.388Z,1.50
2023-01-11T03:57:22.398Z,1.40
2023-01-11T03:58:22.361Z,0.90
2023-01-11T03:59:22.386Z,1.10
2023-01-11T04:00:22.335Z,0.80
2023-01-11T04:01:22.331Z,1.40
2023-01-11T04:02:22.368Z,1.00
2023-01-11T04:03:22.302Z,0.60
2023-01-11T04:04:22.304Z,1.20
2023-01-11T04:05:22.304Z,1.10
2023-01-11T04:06:22.364Z,1.20
2023-01-11T04:07:22.274Z,1.60
2023-01-11T04:08:22.228Z,0.70
2023-01-11T04:09:22.292Z,1.80
2023-01-11T04:10:22.295Z,1.00
2023-01-11T04:11:22.215Z,1.00
2023-01-11T04:12:22.302Z,1.50
2023-01-11T04:13:22.247Z,0.90
2023-01-11T04:14:22.165Z,1.70
2023-01-11T04:15:22.225Z,2.40
2023-01-11T04:16:22.224Z,1.00
2023-01-11T04:17:22.132Z,1.20
2023-01-11T04:18:22.118Z,1.80
2023-01-11T04:19:22.138Z,0.70
2023-01-11T04:20:22.095Z,0.80
2023-01-11T04:21:22.096Z,1.20
2023-01-11T04:22:22.093Z,0.80
2023-01-11T04:23:22.023Z,1.10
2023-01-11T04:24:22.167Z,1.40
2023-01-11T04:25:22.003Z,1.30
2023-01-11T04:26:22.021Z,0.70
2023-01-11T04:27:22.074Z,1.70
2023-01-11T04:28:21.987Z,0.90
2023-01-11T04:29:21.972Z,2.10
2023-01-11T04:30:21.935Z,0.90
2023-01-11T04:31:22.147Z,0.70
2023-01-11T04:32:21.935Z,0.90
2023-01-11T04:33:21.971Z,2.70
2023-01-11T04:34:22.015Z,0.80
2023-01-11T04:35:21.925Z,1.30
2023-01-11T04:36:21.865Z,1.10
2023-01-11T04:37:21.904Z,1.00
2023-01-11T04:38:21.898Z,0.60
2023-01-11T04:39:21.889Z,2.00
2023-01-11T04:40:21.856Z,1.00
2023-01-11T04:41:23.566Z,1.20
2023-01-11T04:42:21.902Z,1.10
2023-01-11T04:43:21.832Z,0.80
2023-01-11T04:44:21.771Z,1.20
2023-01-11T04:45:21.785Z,1.90
2023-01-11T04:46:21.739Z,1.70
2023-01-11T04:47:21.786Z,2.30
2023-01-11T04:48:21.767Z,1.10
2023-01-11T04:49:21.727Z,1.10
2023-01-11T04:50:21.728Z,1.60
2023-01-11T04:51:21.775Z,1.40
2023-01-11T04:52:21.717Z,1.00
2023-01-11T04:53:21.672Z,1.30
2023-01-11T04:54:21.670Z,1.80
2023-01-11T04:55:21.692Z,1.90
2023-01-11T04:56:21.612Z,1.30
2023-01-11T04:57:21.635Z,1.20
2023-01-11T04:58:21.610Z,1.40
2023-01-11T04:59:30.547Z,1.20
2023-01-11T05:00:30.335Z,1.90
2023-01-11T05:01:30.421Z,2.80
2023-01-11T05:02:21.631Z,1.10
2023-01-11T05:03:29.281Z,1.20
2023-01-11T05:04:29.219Z,1.40
2023-01-11T05:05:30.843Z,1.60
2023-01-11T05:06:32.179Z,1.40
2023-01-11T05:07:21.528Z,1.60
2023-01-11T05:08:21.556Z,1.70
2023-01-11T05:09:21.462Z,1.10
2023-01-11T05:10:21.482Z,1.80
2023-01-11T05:11:21.529Z,1.20
2023-01-11T05:12:21.765Z,2.60
2023-01-11T05:13:21.496Z,1.30
2023-01-11T05:14:21.418Z,2.50
2023-01-11T05:15:21.434Z,1.70
2023-01-11T05:16:21.492Z,1.50
2023-01-11T05:17:21.432Z,2.40
2023-01-11T05:18:21.351Z,2.70
2023-01-11T05:19:21.940Z,1.60
2023-01-11T05:20:21.321Z,2.30
2023-01-11T05:21:21.309Z,2.90
2023-01-11T05:22:21.304Z,1.50
2023-01-11T05:23:21.343Z,1.60
2023-01-11T05:24:21.260Z,2.40
2023-01-11T05:25:21.271Z,1.50
2023-01-11T05:26:21.234Z,2.10
2023-01-11T05:27:21.270Z,2.40
2023-01-11T05:28:21.214Z,2.10
2023-01-11T05:29:21.200Z,3.10
2023-01-11T05:30:21.195Z,3.30
2023-01-11T05:31:21.234Z,2.40
2023-01-11T05:32:21.192Z,3.70
2023-01-11T05:33:21.151Z,2.60
2023-01-11T05:34:21.211Z,3.50
2023-01-11T05:35:21.185Z,2.90
2023-01-11T05:36:21.287Z,3.00
2023-01-11T05:37:21.141Z,2.20
2023-01-11T05:38:21.207Z,1.70
2023-01-11T05:39:21.087Z,2.20
2023-01-11T05:40:21.075Z,2.30
2023-01-11T05:41:21.167Z,2.40
2023-01-11T05:42:22.220Z,3.10
2023-01-11T05:43:21.048Z,2.40
2023-01-11T05:44:21.018Z,2.20
2023-01-11T05:45:20.994Z,3.30
2023-01-11T05:46:28.622Z,3.90
2023-01-11T05:47:20.983Z,2.50
2023-01-11T05:48:21.172Z,2.00
2023-01-11T05:49:20.954Z,2.10
2023-01-11T05:50:20.957Z,2.40
2023-01-11T05:51:20.892Z,4.90
2023-01-11T05:52:20.922Z,3.20
2023-01-11T05:53:20.893Z,2.60
2023-01-11T05:54:20.877Z,3.90
2023-01-11T05:55:20.884Z,4.00
2023-01-11T05:56:20.819Z,5.50
2023-01-11T05:57:20.845Z,4.10
2023-01-11T05:58:20.810Z,3.40
2023-01-11T05:59:20.794Z,4.00
2023-01-11T06:00:20.814Z,3.80
2023-01-11T06:01:20.767Z,3.30
2023-01-11T06:02:20.922Z,4.00
2023-01-11T06:03:20.860Z,3.70
2023-01-11T06:04:20.783Z,3.70
2023-01-11T06:05:20.727Z,3.80
2023-01-11T06:06:20.740Z,3.10
2023-01-11T06:07:20.677Z,3.90
2023-01-11T06:08:20.699Z,4.50
2023-01-11T06:09:20.722Z,4.30
2023-01-11T06:10:20.655Z,4.60
2023-01-11T06:11:20.651Z,3.40
2023-01-11T06:12:20.654Z,3.00
2023-01-11T06:13:20.639Z,5.60
2023-01-11T06:14:20.596Z,3.90
2023-01-11T06:15:20.587Z,4.80
2023-01-11T06:16:20.601Z,8.20
2023-01-11T06:17:20.582Z,3.60
2023-01-11T06:18:20.538Z,4.30
2023-01-11T06:19:20.691Z,5.80
2023-01-11T06:20:20.499Z,4.30
2023-01-11T06:21:20.516Z,5.00
2023-01-11T06:22:20.489Z,5.20
2023-01-11T06:23:20.470Z,6.10
2023-01-11T06:24:20.462Z,4.40
2023-01-11T06:25:20.443Z,4.30
2023-01-11T06:26:20.458Z,7.50
2023-01-11T06:27:20.430Z,4.80
2023-01-11T06:28:20.415Z,5.20
2023-01-11T06:29:20.413Z,4.90
2023-01-11T06:30:20.372Z,4.40
2023-01-11T06:31:20.439Z,4.20
2023-01-11T06:32:20.359Z,3.50
2023-01-11T06:33:20.325Z,2.80
2023-01-11T06:34:20.313Z,2.50
2023-01-11T06:35:20.335Z,3.70
2023-01-11T06:36:20.321Z,2.80
2023-01-11T06:37:20.323Z,3.40
2023-01-11T06:38:20.254Z,2.90
2023-01-11T06:39:20.310Z,2.70
2023-01-11T06:40:20.229Z,2.80
2023-01-11T06:41:20.229Z,3.40
2023-01-11T06:42:20.250Z,5.60
2023-01-11T06:43:20.251Z,3.60
2023-01-11T06:44:20.215Z,5.70
2023-01-11T06:45:20.169Z,4.90
2023-01-11T06:46:20.236Z,4.80
2023-01-11T06:47:20.171Z,3.40
2023-01-11T06:48:20.150Z,2.50
2023-01-11T06:49:20.116Z,2.90
2023-01-11T06:50:20.129Z,3.70
2023-01-11T06:51:20.111Z,4.10
2023-01-11T06:52:20.068Z,5.20
2023-01-11T06:53:20.087Z,4.50
2023-01-11T06:54:20.048Z,6.40
2023-01-11T06:55:20.025Z,5.40
2023-01-11T06:56:20.019Z,6.00
2023-01-11T06:57:20.052Z,5.50
2023-01-11T06:58:20.015Z,4.40
2023-01-11T06:59:19.961Z,5.30
2023-01-11T07:00:19.974Z,5.20
2023-01-11T07:01:20.131Z,5.20
2023-01-11T07:02:20.241Z,3.80
2023-01-11T07:03:20.012Z,4.90
2023-01-11T07:04:19.950Z,6.90
2023-01-11T07:05:20.127Z,5.70
2023-01-11T07:06:20.221Z,6.00
2023-01-11T07:07:28.459Z,6.20
2023-01-11T07:08:19.862Z,5.80
2023-01-11T07:09:19.818Z,6.90
2023-01-11T07:10:19.810Z,8.30
2023-01-11T07:11:19.907Z,8.80
2023-01-11T07:12:19.773Z,5.50
2023-01-11T07:13:19.782Z,5.00
2023-01-11T07:14:19.770Z,5.70
2023-01-11T07:15:19.721Z,5.20
2023-01-11T07:16:19.776Z,6.20
2023-01-11T07:17:19.722Z,5.90
2023-01-11T07:18:19.706Z,5.90
2023-01-11T07:19:19.657Z,5.90
2023-01-11T07:20:19.665Z,5.90
2023-01-11T07:21:19.675Z,6.40
2023-01-11T07:22:19.642Z,4.10
2023-01-11T07:23:19.629Z,4.50
2023-01-11T07:24:19.606Z,4.10
2023-01-11T07:25:19.611Z,5.60
2023-01-11T07:26:19.621Z,3.40
2023-01-11T07:27:19.591Z,3.90
2023-01-11T07:28:19.591Z,5.20
2023-01-11T07:29:19.535Z,4.80
2023-01-11T07:30:19.556Z,4.70
2023-01-11T07:31:19.556Z,5.30
2023-01-11T07:32:19.527Z,4.10
2023-01-11T07:33:19.531Z,3.10
2023-01-11T07:34:19.475Z,2.80
2023-01-11T07:35:19.468Z,3.80
2023-01-11T07:36:19.449Z,3.40
2023-01-11T07:37:28.457Z,3.40
2023-01-11T07:38:20.436Z,3.20
2023-01-11T07:39:19.415Z,2.90
2023-01-11T07:40:19.384Z,3.00
2023-01-11T07:41:19.380Z,4.10
2023-01-11T07:42:19.365Z,5.10
2023-01-11T07:43:19.401Z,4.50
2023-01-11T07:44:19.413Z,3.50
2023-01-11T07:45:19.342Z,4.20
2023-01-11T07:46:19.531Z,3.00
2023-01-11T07:47:19.286Z,4.50
2023-01-11T07:48:19.300Z,4.10
2023-01-11T07:49:19.239Z,3.30
2023-01-11T07:50:19.252Z,3.20
2023-01-11T07:51:19.243Z,4.50
2023-01-11T07:52:19.210Z,3.80
2023-01-11T07:53:19.271Z,3.80
2023-01-11T07:54:19.242Z,3.90
2023-01-11T07:55:19.196Z,3.60
2023-01-11T07:56:19.190Z,4.30
2023-01-11T07:57:19.151Z,4.70
2023-01-11T07:58:19.180Z,5.40
2023-01-11T07:59:19.111Z,5.10
2023-01-11T08:00:19.172Z,5.40
2023-01-11T08:01:19.114Z,5.10
2023-01-11T08:02:19.169Z,4.90
2023-01-11T08:03:19.259Z,6.20
2023-01-11T08:04:19.126Z,5.50
2023-01-11T08:05:19.047Z,7.30
2023-01-11T08:06:19.060Z,5.30
2023-01-11T08:07:19.025Z,6.10
2023-01-11T08:08:18.991Z,7.40
2023-01-11T08:09:18.986Z,9.20
2023-01-11T08:10:19.012Z,9.30
2023-01-11T08:11:18.948Z,6.80
2023-01-11T08:12:18.941Z,8.20
2023-01-11T08:13:18.947Z,5.90
2023-01-11T08:14:18.974Z,8.30
2023-01-11T08:15:18.924Z,5.70
2023-01-11T08:16:18.959Z,5.60
2023-01-11T08:17:18.891Z,7.10
2023-01-11T08:18:18.876Z,5.70
2023-01-11T08:19:18.891Z,6.50
2023-01-11T08:20:18.907Z,5.90
2023-01-11T08:21:18.856Z,6.40
2023-01-11T08:22:18.801Z,6.20
2023-01-11T08:23:18.858Z,6.50
2023-01-11T08:24:18.797Z,6.80
2023-01-11T08:25:18.729Z,7.20
2023-01-11T08:26:18.735Z,9.30
2023-01-11T08:27:18.721Z,7.60
2023-01-11T08:28:18.737Z,8.50
2023-01-11T08:29:18.782Z,9.50
2023-01-11T08:30:18.703Z,8.20
2023-01-11T08:31:18.683Z,9.10
2023-01-11T08:32:18.642Z,6.40
2023-01-11T08:33:18.639Z,8.80
2023-01-11T08:34:18.656Z,7.50
2023-01-11T08:35:18.656Z,6.60
2023-01-11T08:36:18.593Z,11.40
2023-01-11T08:37:18.565Z,5.00
2023-01-11T08:38:18.572Z,6.00
2023-01-11T08:39:18.569Z,8.00
2023-01-11T08:40:18.564Z,8.80
2023-01-11T08:41:18.511Z,7.20
2023-01-11T08:42:18.526Z,8.20
2023-01-11T08:43:18.554Z,8.00
2023-01-11T08:44:29.042Z,7.90
2023-01-11T08:45:19.479Z,11.50
2023-01-11T08:46:18.495Z,7.20
2023-01-11T08:47:18.470Z,7.30
2023-01-11T08:48:18.446Z,9.80
2023-01-11T08:49:18.426Z,6.90
2023-01-11T08:50:18.431Z,9.90
2023-01-11T08:51:18.394Z,10.80
2023-01-11T08:52:18.394Z,10.30
2023-01-11T08:53:18.335Z,6.50
2023-01-11T08:54:18.353Z,9.80
2023-01-11T08:55:18.382Z,11.80
2023-01-11T08:56:18.301Z,7.00
2023-01-11T08:57:18.289Z,9.20
2023-01-11T08:58:20.056Z,8.50
2023-01-11T08:59:18.256Z,8.20
2023-01-11T09:00:18.294Z,8.90
2023-01-11T09:01:18.362Z,10.20
2023-01-11T09:02:18.226Z,14.10
2023-01-11T09:03:18.202Z,8.70
2023-01-11T09:04:25.092Z,8.00
2023-01-11T09:05:19.168Z,7.70
2023-01-11T09:06:18.180Z,10.30
2023-01-11T09:07:18.185Z,10.50
2023-01-11T09:08:18.185Z,13.60
2023-01-11T09:09:18.133Z,11.50
2023-01-11T09:10:18.125Z,12.40
2023-01-11T09:11:18.099Z,14.80
2023-01-11T09:12:18.080Z,14.70
2023-01-11T09:13:18.109Z,10.60
2023-01-11T09:14:18.082Z,13.20
2023-01-11T09:15:18.108Z,12.30
2023-01-11T09:16:18.030Z,13.50
2023-01-11T09:17:18.085Z,12.20
2023-01-11T09:18:18.003Z,11.20
2023-01-11T09:19:18.000Z,13.00
2023-01-11T09:20:18.039Z,11.40
2023-01-11T09:21:17.958Z,10.20
2023-01-11T09:22:18.112Z,11.50
2023-01-11T09:23:17.932Z,11.20
2023-01-11T09:24:17.959Z,14.30
2023-01-11T09:25:17.911Z,10.00
2023-01-11T09:26:17.908Z,11.20
2023-01-11T09:27:17.905Z,11.60
2023-01-11T09:28:17.917Z,10.30
2023-01-11T09:29:17.931Z,11.70
2023-01-11T09:30:17.855Z,13.90
2023-01-11T09:31:17.865Z,14.40
2023-01-11T09:32:17.848Z,9.10
2023-01-11T09:33:17.770Z,11.70
2023-01-11T09:34:17.826Z,12.70
2023-01-11T09:35:17.792Z,11.60
2023-01-11T09:36:17.838Z,12.60
2023-01-11T09:37:17.746Z,13.70
2023-01-11T09:38:17.770Z,15.90
2023-01-11T09:39:17.731Z,13.60
2023-01-11T09:40:17.738Z,13.60
2023-01-11T09:41:17.689Z,12.70
2023-01-11T09:42:17.665Z,13.10
2023-01-11T09:43:17.672Z,12.50
2023-01-11T09:44:17.713Z,12.90
2023-01-11T09:45:17.609Z,11.50
2023-01-11T09:46:17.708Z,11.00
2023-01-11T09:47:17.605Z,14.40
2023-01-11T09:48:17.611Z,15.00
2023-01-11T09:49:17.556Z,9.70
2023-01-11T09:50:17.570Z,15.30
2023-01-11T09:51:17.578Z,10.40
2023-01-11T09:52:17.533Z,11.00
2023-01-11T09:53:17.512Z,15.00
2023-01-11T09:54:17.502Z,9.30
2023-01-11T09:55:17.511Z,11.20
2023-01-11T09:56:17.505Z,11.00
2023-01-11T09:57:17.489Z,12.50
2023-01-11T09:58:17.478Z,12.50
2023-01-11T09:59:17.399Z,13.70
2023-01-11T10:00:17.573Z,10.30
2023-01-11T10:01:17.468Z,15.30
2023-01-11T10:02:17.558Z,13.50
2023-01-11T10:03:17.378Z,13.90
2023-01-11T10:04:17.374Z,7.50
2023-01-11T10:05:17.402Z,11.00
2023-01-11T10:06:17.356Z,12.30
2023-01-11T10:07:17.307Z,12.40
2023-01-11T10:18:22.198Z,13.00
2023-01-11T10:18:29.556Z,9.90
2023-01-11T10:18:29.961Z,9.10
2023-01-11T10:18:41.543Z,10.90
2023-01-11T10:18:41.881Z,14.70
2023-01-11T10:19:34.927Z,11.90
2023-01-11T10:20:18.176Z,10.00
2023-01-11T10:21:17.108Z,15.00
2023-01-11T10:22:17.151Z,11.20
2023-01-11T10:23:17.092Z,13.50
2023-01-11T10:24:17.080Z,11.60
2023-01-11T10:25:17.094Z,11.40
2023-01-11T10:26:17.049Z,9.90
2023-01-11T10:27:17.066Z,11.10
2023-01-11T10:28:17.007Z,11.60
2023-01-11T10:29:16.994Z,11.80
2023-01-11T10:30:16.989Z,10.10
2023-01-11T10:31:17.027Z,12.30
2023-01-11T10:32:16.994Z,12.20
2023-01-11T10:33:16.960Z,12.00
2023-01-11T10:34:16.935Z,9.30
2023-01-11T10:35:16.913Z,13.00
2023-01-11T10:36:16.925Z,9.90
2023-01-11T10:37:16.930Z,9.40
2023-01-11T10:38:16.902Z,14.90
2023-01-11T10:39:16.888Z,8.80
2023-01-11T10:40:16.843Z,12.90
2023-01-11T10:41:16.834Z,8.50
2023-01-11T10:42:16.835Z,10.40
2023-01-11T10:43:16.878Z,11.50
2023-01-11T10:44:16.795Z,12.70
2023-01-11T10:45:16.796Z,12.00
2023-01-11T10:46:16.756Z,10.10
2023-01-11T10:47:16.747Z,10.00
2023-01-11T10:48:16.722Z,8.80
2023-01-11T10:49:16.722Z,10.10
2023-01-11T10:50:16.714Z,12.00
2023-01-11T10:51:16.706Z,11.10
2023-01-11T10:52:16.665Z,11.20
2023-01-11T10:53:16.665Z,8.20
2023-01-11T10:54:16.736Z,8.10
2023-01-11T10:55:16.634Z,11.40
2023-01-11T10:56:16.668Z,8.90
2023-01-11T10:57:16.628Z,9.90
2023-01-11T10:58:16.592Z,7.70
2023-01-11T10:59:16.582Z,7.90
2023-01-11T11:00:16.576Z,11.90
2023-01-11T11:01:16.603Z,10.60
2023-01-11T11:02:16.707Z,10.70
2023-01-11T11:03:16.531Z,7.20
2023-01-11T11:04:16.544Z,9.70
2023-01-11T11:05:16.510Z,10.70
2023-01-11T11:06:16.489Z,7.90
2023-01-11T11:07:16.493Z,10.30
2023-01-11T11:08:16.454Z,11.50
2023-01-11T11:09:16.444Z,9.30
2023-01-11T11:10:16.451Z,11.80
2023-01-11T11:11:16.428Z,13.20
2023-01-11T11:12:16.393Z,7.30
2023-01-11T11:13:16.416Z,9.90
2023-01-11T11:14:16.377Z,7.80
2023-01-11T11:15:16.361Z,6.80
2023-01-11T11:16:16.401Z,7.60
2023-01-11T11:17:16.352Z,9.10
2023-01-11T11:18:16.311Z,7.60
2023-01-11T11:19:16.323Z,6.20
2023-01-11T11:20:16.272Z,10.50
2023-01-11T11:21:16.281Z,7.50
2023-01-11T11:22:16.272Z,10.60
2023-01-11T11:23:16.241Z,6.70
2023-01-11T11:24:16.242Z,6.40
2023-01-11T11:25:16.233Z,7.40
2023-01-11T11:26:16.195Z,7.30
2023-01-11T11:27:16.209Z,6.40
2023-01-11T11:28:16.174Z,6.20
2023-01-11T11:29:16.201Z,6.40
2023-01-11T11:30:16.132Z,9.20
2023-01-11T11:31:16.178Z,6.90
2023-01-11T11:32:16.107Z,6.30
2023-01-11T11:33:16.115Z,8.40
2023-01-11T11:34:16.091Z,8.90
2023-01-11T11:35:16.087Z,6.20
2023-01-11T11:36:16.038Z,8.80
2023-01-11T11:37:16.036Z,7.20
2023-01-11T11:38:16.018Z,7.70
2023-01-11T11:39:16.016Z,7.40
2023-01-11T11:40:16.026Z,9.50
2023-01-11T11:41:15.978Z,8.60
2023-01-11T11:42:15.986Z,7.60
2023-01-11T11:43:15.950Z,8.00
2023-01-11T11:44:15.940Z,8.50
2023-01-11T11:45:15.987Z,8.90
2023-01-11T11:46:19.519Z,8.60
2023-01-11T11:47:15.899Z,7.70
2023-01-11T11:48:15.879Z,11.60
2023-01-11T11:49:15.868Z,9.70
2023-01-11T11:50:17.048Z,10.60
2023-01-11T11:51:15.854Z,7.00
2023-01-11T11:52:15.814Z,12.20
2023-01-11T11:53:15.800Z,8.30
2023-01-11T11:54:15.802Z,7.90
2023-01-11T11:55:15.796Z,7.00
2023-01-11T11:56:15.795Z,8.20
2023-01-11T11:57:15.745Z,7.60
2023-01-11T11:58:15.730Z,7.60
2023-01-11T11:59:15.722Z,8.50
2023-01-11T12:00:15.713Z,11.80
2023-01-11T12:01:15.697Z,8.50
2023-01-11T12:02:15.761Z,9.80
2023-01-11T12:03:15.686Z,7.40
2023-01-11T12:04:15.636Z,6.10
2023-01-11T12:05:15.718Z,10.40
2023-01-11T12:06:15.612Z,11.30
2023-01-11T12:07:15.627Z,8.60
2023-01-11T12:08:15.640Z,11.60
2023-01-11T12:09:15.648Z,8.90
2023-01-11T12:10:15.559Z,8.80
2023-01-11T12:11:15.557Z,7.60
2023-01-11T12:12:15.529Z,7.90
2023-01-11T12:13:15.524Z,6.30
2023-01-11T12:14:15.538Z,8.50
2023-01-11T12:15:15.535Z,9.20
2023-01-11T12:16:15.527Z,12.50
2023-01-11T12:17:15.468Z,7.30
2023-01-11T12:18:15.540Z,10.80
2023-01-11T12:19:15.442Z,8.50
2023-01-11T12:20:15.469Z,9.50
2023-01-11T12:21:15.419Z,7.50
2023-01-11T12:22:15.406Z,10.10
2023-01-11T12:23:15.378Z,10.30
2023-01-11T12:24:15.350Z,7.30
2023-01-11T12:25:15.347Z,7.60
2023-01-11T12:26:15.328Z,7.50
2023-01-11T12:27:15.526Z,7.00
2023-01-11T12:28:15.315Z,6.50
2023-01-11T12:29:15.279Z,5.10
2023-01-11T12:30:15.334Z,7.50
2023-01-11T12:31:15.319Z,6.40
2023-01-11T12:32:15.240Z,5.50
2023-01-11T12:33:15.227Z,8.00
2023-01-11T12:34:15.289Z,5.50
2023-01-11T12:35:15.212Z,6.80
2023-01-11T12:36:15.213Z,6.30
2023-01-11T12:37:15.199Z,7.20
2023-01-11T12:38:15.150Z,5.90
2023-01-11T12:39:15.151Z,7.30
2023-01-11T12:40:15.283Z,8.20
2023-01-11T12:41:15.115Z,5.80
2023-01-11T12:42:15.137Z,7.00
2023-01-11T12:43:15.094Z,6.50
2023-01-11T12:44:15.063Z,9.10
2023-01-11T12:45:15.078Z,9.60
2023-01-11T12:46:15.106Z,6.00
2023-01-11T12:47:17.817Z,8.30
2023-01-11T12:48:15.019Z,7.40
2023-01-11T12:49:15.003Z,9.80
2023-01-11T12:50:15.046Z,7.10
2023-01-11T12:51:14.989Z,5.70
2023-01-11T12:52:14.960Z,8.40
2023-01-11T12:53:14.949Z,9.50
2023-01-11T12:54:14.900Z,4.30
2023-01-11T12:55:14.898Z,5.80
2023-01-11T12:56:14.916Z,7.00
2023-01-11T12:57:14.876Z,8.70
2023-01-11T12:58:14.903Z,7.10
2023-01-11T12:59:14.858Z,6.40
2023-01-11T13:00:14.822Z,8.70
2023-01-11T13:01:14.911Z,7.40
2023-01-11T13:02:14.838Z,9.20
2023-01-11T13:03:14.802Z,7.60
2023-01-11T13:04:14.784Z,8.00
2023-01-11T13:05:14.775Z,7.50
2023-01-11T13:06:14.725Z,4.40
2023-01-11T13:07:14.735Z,7.60
2023-01-11T13:09:25.014Z,5.10
2023-01-11T13:10:25.019Z,7.10
2023-01-11T13:11:24.969Z,5.30
2023-01-11T13:12:24.951Z,6.10
2023-01-11T13:13:24.941Z,6.40
2023-01-11T13:14:24.942Z,6.70
2023-01-11T13:15:24.936Z,5.10
2023-01-11T13:16:25.762Z,7.70
2023-01-11T13:17:24.908Z,5.60
2023-01-11T13:18:24.862Z,7.00
2023-01-11T13:19:24.872Z,6.00
2023-01-11T13:20:24.847Z,6.90
2023-01-11T13:21:24.844Z,10.00
2023-01-11T13:22:24.822Z,7.90